sensor_id;sensor_type;location;lat;lon;timestamp;pressure;altitude;pressure_sealevel;temperature;humidity
40730;BME280;26418;50.070;8.436;2023-03-16T00:00:43;100533.31;;;0.41;78.23
40730;BME280;26418;50.070;8.436;2023-03-16T00:03:10;100538.03;;;0.39;78.48
40730;BME280;26418;50.070;8.436;2023-03-16T00:05:36;100534.81;;;0.37;78.71
40730;BME280;26418;50.070;8.436;2023-03-16T00:08:02;100537.66;;;0.35;78.69
40730;BME280;26418;50.070;8.436;2023-03-16T00:10:27;100530.06;;;0.39;78.24
40730;BME280;26418;50.070;8.436;2023-03-16T00:12:54;100522.53;;;0.36;78.45
40730;BME280;26418;50.070;8.436;2023-03-16T00:15:20;100528.22;;;0.39;78.50
40730;BME280;26418;50.070;8.436;2023-03-16T00:17:45;100519.41;;;0.39;78.55
40730;BME280;26418;50.070;8.436;2023-03-16T00:20:15;100520.63;;;0.43;78.32
40730;BME280;26418;50.070;8.436;2023-03-16T00:22:40;100513.38;;;0.50;77.72
40730;BME280;26418;50.070;8.436;2023-03-16T00:25:07;100518.28;;;0.53;76.72
40730;BME280;26418;50.070;8.436;2023-03-16T00:27:33;100514.59;;;0.54;76.96
40730;BME280;26418;50.070;8.436;2023-03-16T00:29:59;100520.19;;;0.46;76.75
40730;BME280;26418;50.070;8.436;2023-03-16T00:32:32;100513.63;;;0.49;77.04
40730;BME280;26418;50.070;8.436;2023-03-16T00:34:58;100514.41;;;0.49;77.21
40730;BME280;26418;50.070;8.436;2023-03-16T00:37:27;100507.69;;;0.46;77.26
40730;BME280;26418;50.070;8.436;2023-03-16T00:39:53;100517.97;;;0.43;77.60
40730;BME280;26418;50.070;8.436;2023-03-16T00:42:24;100511.88;;;0.36;77.82
40730;BME280;26418;50.070;8.436;2023-03-16T00:44:58;100507.88;;;0.26;77.56
40730;BME280;26418;50.070;8.436;2023-03-16T00:47:29;100510.31;;;0.28;77.82
40730;BME280;26418;50.070;8.436;2023-03-16T00:49:54;100525.19;;;0.36;77.50
40730;BME280;26418;50.070;8.436;2023-03-16T00:52:20;100514.38;;;0.30;77.59
40730;BME280;26418;50.070;8.436;2023-03-16T00:54:47;100523.81;;;0.26;78.12
40730;BME280;26418;50.070;8.436;2023-03-16T00:57:15;100510.41;;;0.14;78.38
40730;BME280;26418;50.070;8.436;2023-03-16T00:59:43;100518.59;;;0.13;79.00
40730;BME280;26418;50.070;8.436;2023-03-16T01:02:10;100527.81;;;0.10;78.99
40730;BME280;26418;50.070;8.436;2023-03-16T01:04:36;100514.13;;;0.07;79.55
40730;BME280;26418;50.070;8.436;2023-03-16T01:07:04;100515.63;;;0.03;79.82
40730;BME280;26418;50.070;8.436;2023-03-16T01:09:30;100517.66;;;0.01;80.33
40730;BME280;26418;50.070;8.436;2023-03-16T01:12:04;100512.97;;;0.03;80.49
40730;BME280;26418;50.070;8.436;2023-03-16T01:14:31;100506.66;;;-0.03;80.51
40730;BME280;26418;50.070;8.436;2023-03-16T01:16:57;100517.25;;;0.04;80.37
40730;BME280;26418;50.070;8.436;2023-03-16T01:19:22;100518.28;;;0.03;80.66
40730;BME280;26418;50.070;8.436;2023-03-16T01:21:47;100515.81;;;0.01;80.59
40730;BME280;26418;50.070;8.436;2023-03-16T01:24:13;100509.72;;;-0.06;81.02
40730;BME280;26418;50.070;8.436;2023-03-16T01:26:38;100514.88;;;-0.11;81.01
40730;BME280;26418;50.070;8.436;2023-03-16T01:29:04;100512.00;;;-0.10;81.49
40730;BME280;26418;50.070;8.436;2023-03-16T01:31:29;100509.13;;;-0.08;81.65
40730;BME280;26418;50.070;8.436;2023-03-16T01:33:56;100495.81;;;-0.08;81.62
40730;BME280;26418;50.070;8.436;2023-03-16T01:36:21;100497.31;;;-0.12;81.63
40730;BME280;26418;50.070;8.436;2023-03-16T01:38:46;100481.19;;;-0.18;81.44
40730;BME280;26418;50.070;8.436;2023-03-16T01:41:13;100482.16;;;-0.12;81.92
40730;BME280;26418;50.070;8.436;2023-03-16T01:43:40;100485.59;;;-0.05;81.26
40730;BME280;26418;50.070;8.436;2023-03-16T01:51:26;100485.00;;;-0.07;81.02
40730;BME280;26418;50.070;8.436;2023-03-16T01:54:00;100485.81;;;-0.06;81.56
40730;BME280;26418;50.070;8.436;2023-03-16T01:56:32;100480.94;;;-0.09;81.15
40730;BME280;26418;50.070;8.436;2023-03-16T01:59:01;100462.59;;;-0.18;81.25
40730;BME280;26418;50.070;8.436;2023-03-16T02:01:31;100476.44;;;-0.16;81.29
40730;BME280;26418;50.070;8.436;2023-03-16T02:04:47;100465.81;;;-0.16;81.55
40730;BME280;26418;50.070;8.436;2023-03-16T02:06:47;100469.91;;;-0.13;81.49
40730;BME280;26418;50.070;8.436;2023-03-16T02:09:13;100474.06;;;-0.24;81.96
40730;BME280;26418;50.070;8.436;2023-03-16T02:11:40;100461.25;;;-0.34;81.93
40730;BME280;26418;50.070;8.436;2023-03-16T02:14:09;100463.09;;;-0.34;82.45
40730;BME280;26418;50.070;8.436;2023-03-16T02:16:35;100477.34;;;-0.28;82.72
40730;BME280;26418;50.070;8.436;2023-03-16T02:19:00;100480.47;;;-0.32;82.62
40730;BME280;26418;50.070;8.436;2023-03-16T02:21:49;100473.28;;;-0.31;82.98
40730;BME280;26418;50.070;8.436;2023-03-16T02:24:20;100464.06;;;-0.28;82.81
40730;BME280;26418;50.070;8.436;2023-03-16T02:26:56;100466.31;;;-0.25;82.76
40730;BME280;26418;50.070;8.436;2023-03-16T02:32:06;100452.00;;;-0.24;81.97
40730;BME280;26418;50.070;8.436;2023-03-16T02:34:31;100444.28;;;-0.33;82.04
40730;BME280;26418;50.070;8.436;2023-03-16T02:36:57;100440.41;;;-0.37;82.58
40730;BME280;26418;50.070;8.436;2023-03-16T02:39:23;100434.28;;;-0.37;83.19
40730;BME280;26418;50.070;8.436;2023-03-16T02:41:49;100437.75;;;-0.37;83.03
40730;BME280;26418;50.070;8.436;2023-03-16T02:44:26;100433.03;;;-0.35;83.07
40730;BME280;26418;50.070;8.436;2023-03-16T02:46:55;100440.41;;;-0.37;83.10
40730;BME280;26418;50.070;8.436;2023-03-16T02:49:35;100429.78;;;-0.37;83.87
40730;BME280;26418;50.070;8.436;2023-03-16T02:52:02;100411.63;;;-0.40;83.71
40730;BME280;26418;50.070;8.436;2023-03-16T02:54:28;100437.44;;;-0.22;83.88
40730;BME280;26418;50.070;8.436;2023-03-16T02:56:53;100434.56;;;-0.20;83.55
40730;BME280;26418;50.070;8.436;2023-03-16T02:59:18;100440.25;;;-0.17;84.47
40730;BME280;26418;50.070;8.436;2023-03-16T03:01:44;100430.47;;;-0.16;84.10
40730;BME280;26418;50.070;8.436;2023-03-16T03:04:09;100420.63;;;-0.16;84.55
40730;BME280;26418;50.070;8.436;2023-03-16T03:06:35;100424.72;;;-0.13;85.19
40730;BME280;26418;50.070;8.436;2023-03-16T03:09:01;100433.66;;;-0.07;85.28
40730;BME280;26418;50.070;8.436;2023-03-16T03:11:27;100424.00;;;-0.02;85.19
40730;BME280;26418;50.070;8.436;2023-03-16T03:13:53;100415.81;;;0.00;85.05
40730;BME280;26418;50.070;8.436;2023-03-16T03:16:18;100415.00;;;-0.01;85.78
40730;BME280;26418;50.070;8.436;2023-03-16T03:18:44;100417.03;;;-0.03;86.12
40730;BME280;26418;50.070;8.436;2023-03-16T03:21:09;100409.94;;;-0.09;85.63
40730;BME280;26418;50.070;8.436;2023-03-16T03:23:34;100400.84;;;-0.20;86.06
40730;BME280;26418;50.070;8.436;2023-03-16T03:26:00;100416.28;;;-0.10;86.60
40730;BME280;26418;50.070;8.436;2023-03-16T03:28:27;100420.16;;;-0.06;87.06
40730;BME280;26418;50.070;8.436;2023-03-16T03:30:52;100418.31;;;-0.05;86.00
40730;BME280;26418;50.070;8.436;2023-03-16T03:33:18;100411.56;;;-0.08;86.96
40730;BME280;26418;50.070;8.436;2023-03-16T03:35:43;100413.63;;;-0.10;87.12
40730;BME280;26418;50.070;8.436;2023-03-16T03:38:09;100423.47;;;-0.10;86.96
40730;BME280;26418;50.070;8.436;2023-03-16T03:40:35;100422.25;;;-0.14;87.42
40730;BME280;26418;50.070;8.436;2023-03-16T03:43:00;100417.78;;;-0.14;87.57
40730;BME280;26418;50.070;8.436;2023-03-16T03:45:26;100399.44;;;-0.22;88.19
40730;BME280;26418;50.070;8.436;2023-03-16T03:47:51;100414.13;;;-0.20;88.03
40730;BME280;26418;50.070;8.436;2023-03-16T03:50:19;100414.50;;;-0.16;88.16
40730;BME280;26418;50.070;8.436;2023-03-16T03:52:45;100417.53;;;-0.12;88.08
40730;BME280;26418;50.070;8.436;2023-03-16T03:55:11;100420.19;;;-0.12;88.29
40730;BME280;26418;50.070;8.436;2023-03-16T03:57:36;100407.59;;;-0.24;88.29
40730;BME280;26418;50.070;8.436;2023-03-16T04:00:04;100410.63;;;-0.20;88.56
40730;BME280;26418;50.070;8.436;2023-03-16T04:02:32;100422.06;;;-0.13;88.05
40730;BME280;26418;50.070;8.436;2023-03-16T04:04:57;100420.84;;;-0.17;88.44
40730;BME280;26418;50.070;8.436;2023-03-16T04:07:22;100417.41;;;-0.18;88.60
40730;BME280;26418;50.070;8.436;2023-03-16T04:09:48;100398.81;;;-0.24;88.58
40730;BME280;26418;50.070;8.436;2023-03-16T04:12:13;100402.75;;;-0.27;88.59
40730;BME280;26418;50.070;8.436;2023-03-16T04:14:38;100403.38;;;-0.32;89.40
40730;BME280;26418;50.070;8.436;2023-03-16T04:17:04;100408.91;;;-0.33;89.43
40730;BME280;26418;50.070;8.436;2023-03-16T04:19:29;100399.13;;;-0.39;89.64
40730;BME280;26418;50.070;8.436;2023-03-16T04:21:54;100404.63;;;-0.34;90.47
40730;BME280;26418;50.070;8.436;2023-03-16T04:24:20;100409.09;;;-0.28;90.03
40730;BME280;26418;50.070;8.436;2023-03-16T04:26:46;100404.00;;;-0.29;89.86
40730;BME280;26418;50.070;8.436;2023-03-16T04:29:12;100406.81;;;-0.24;89.50
40730;BME280;26418;50.070;8.436;2023-03-16T04:31:39;100404.38;;;-0.26;89.92
40730;BME280;26418;50.070;8.436;2023-03-16T04:34:05;100408.81;;;-0.20;89.64
40730;BME280;26418;50.070;8.436;2023-03-16T04:36:30;100379.00;;;-0.28;88.88
40730;BME280;26418;50.070;8.436;2023-03-16T04:38:57;100387.16;;;-0.23;89.23
40730;BME280;26418;50.070;8.436;2023-03-16T04:41:22;100392.47;;;-0.23;89.74
40730;BME280;26418;50.070;8.436;2023-03-16T04:43:48;100376.19;;;-0.34;89.82
40730;BME280;26418;50.070;8.436;2023-03-16T04:46:13;100389.44;;;-0.27;89.71
40730;BME280;26418;50.070;8.436;2023-03-16T04:48:39;100381.94;;;-0.37;89.51
40730;BME280;26418;50.070;8.436;2023-03-16T04:51:04;100399.06;;;-0.26;89.53
40730;BME280;26418;50.070;8.436;2023-03-16T04:53:30;100400.66;;;-0.25;89.95
40730;BME280;26418;50.070;8.436;2023-03-16T04:55:56;100388.25;;;-0.31;89.48
40730;BME280;26418;50.070;8.436;2023-03-16T04:58:22;100395.56;;;-0.26;89.77
40730;BME280;26418;50.070;8.436;2023-03-16T05:00:51;100396.44;;;-0.33;89.69
40730;BME280;26418;50.070;8.436;2023-03-16T05:03:16;100392.16;;;-0.34;90.23
40730;BME280;26418;50.070;8.436;2023-03-16T05:05:41;100388.88;;;-0.36;90.76
40730;BME280;26418;50.070;8.436;2023-03-16T05:08:07;100391.06;;;-0.26;90.46
40730;BME280;26418;50.070;8.436;2023-03-16T05:10:35;100374.16;;;-0.32;90.00
40730;BME280;26418;50.070;8.436;2023-03-16T05:13:00;100391.88;;;-0.25;89.90
40730;BME280;26418;50.070;8.436;2023-03-16T05:15:26;100390.84;;;-0.24;89.64
40730;BME280;26418;50.070;8.436;2023-03-16T05:17:53;100379.00;;;-0.28;90.13
40730;BME280;26418;50.070;8.436;2023-03-16T05:20:19;100389.22;;;-0.25;89.69
40730;BME280;26418;50.070;8.436;2023-03-16T05:22:45;100375.31;;;-0.27;89.77
40730;BME280;26418;50.070;8.436;2023-03-16T05:25:13;100376.34;;;-0.28;89.51
40730;BME280;26418;50.070;8.436;2023-03-16T05:27:48;100385.97;;;-0.27;90.49
40730;BME280;26418;50.070;8.436;2023-03-16T05:30:15;100371.03;;;-0.28;90.07
40730;BME280;26418;50.070;8.436;2023-03-16T05:32:41;100360.84;;;-0.32;90.54
40730;BME280;26418;50.070;8.436;2023-03-16T05:35:07;100365.34;;;-0.32;90.28
40730;BME280;26418;50.070;8.436;2023-03-16T05:37:34;100378.16;;;-0.22;90.34
40730;BME280;26418;50.070;8.436;2023-03-16T05:40:04;100365.16;;;-0.30;90.66
40730;BME280;26418;50.070;8.436;2023-03-16T05:42:44;100355.28;;;-0.23;90.31
40730;BME280;26418;50.070;8.436;2023-03-16T05:45:11;100365.16;;;-0.12;89.91
40730;BME280;26418;50.070;8.436;2023-03-16T05:47:36;100368.22;;;-0.08;89.33
40730;BME280;26418;50.070;8.436;2023-03-16T05:50:05;100361.72;;;-0.12;89.32
40730;BME280;26418;50.070;8.436;2023-03-16T05:52:36;100367.78;;;-0.05;89.52
40730;BME280;26418;50.070;8.436;2023-03-16T05:55:01;100372.16;;;0.08;88.97
40730;BME280;26418;50.070;8.436;2023-03-16T05:57:26;100361.53;;;0.08;88.62
40730;BME280;26418;50.070;8.436;2023-03-16T05:59:52;100356.44;;;0.06;88.60
40730;BME280;26418;50.070;8.436;2023-03-16T06:02:17;100363.28;;;0.14;88.63
40730;BME280;26418;50.070;8.436;2023-03-16T06:04:43;100368.41;;;0.15;89.22
40730;BME280;26418;50.070;8.436;2023-03-16T06:07:08;100371.81;;;0.23;88.65
40730;BME280;26418;50.070;8.436;2023-03-16T06:09:34;100364.88;;;0.22;88.32
40730;BME280;26418;50.070;8.436;2023-03-16T06:11:59;100370.50;;;0.32;89.68
40730;BME280;26418;50.070;8.436;2023-03-16T06:14:24;100370.13;;;0.47;91.62
40730;BME280;26418;50.070;8.436;2023-03-16T06:16:50;100361.69;;;0.50;91.10
40730;BME280;26418;50.070;8.436;2023-03-16T06:19:15;100375.06;;;0.62;88.34
40730;BME280;26418;50.070;8.436;2023-03-16T06:21:41;100370.78;;;0.61;87.39
40730;BME280;26418;50.070;8.436;2023-03-16T06:24:06;100377.13;;;0.60;87.00
40730;BME280;26418;50.070;8.436;2023-03-16T06:26:34;100371.25;;;0.58;87.30
40730;BME280;26418;50.070;8.436;2023-03-16T06:28:59;100354.09;;;0.54;87.79
40730;BME280;26418;50.070;8.436;2023-03-16T06:31:24;100365.38;;;0.68;86.91
40730;BME280;26418;50.070;8.436;2023-03-16T06:33:50;100367.44;;;0.66;86.75
40730;BME280;26418;50.070;8.436;2023-03-16T06:36:15;100380.69;;;0.72;87.59
40730;BME280;26418;50.070;8.436;2023-03-16T06:38:41;100383.06;;;0.81;87.19
40730;BME280;26418;50.070;8.436;2023-03-16T06:41:06;100389.34;;;0.86;86.87
40730;BME280;26418;50.070;8.436;2023-03-16T06:43:31;100389.03;;;0.94;86.16
40730;BME280;26418;50.070;8.436;2023-03-16T06:45:57;100389.38;;;0.98;86.20
40730;BME280;26418;50.070;8.436;2023-03-16T06:48:23;100390.91;;;1.06;86.40
40730;BME280;26418;50.070;8.436;2023-03-16T06:50:48;100383.66;;;1.13;86.05
40730;BME280;26418;50.070;8.436;2023-03-16T06:53:13;100370.19;;;1.08;84.88
40730;BME280;26418;50.070;8.436;2023-03-16T06:55:38;100389.72;;;1.20;85.62
40730;BME280;26418;50.070;8.436;2023-03-16T06:58:04;100383.34;;;1.21;85.30
40730;BME280;26418;50.070;8.436;2023-03-16T07:00:29;100376.50;;;1.25;85.17
40730;BME280;26418;50.070;8.436;2023-03-16T07:02:55;100379.69;;;1.34;85.16
40730;BME280;26418;50.070;8.436;2023-03-16T07:05:20;100393.38;;;1.38;85.18
40730;BME280;26418;50.070;8.436;2023-03-16T07:07:46;100379.72;;;1.46;86.20
40730;BME280;26418;50.070;8.436;2023-03-16T07:10:13;100381.47;;;1.64;84.93
40730;BME280;26418;50.070;8.436;2023-03-16T07:12:39;100380.09;;;1.73;84.19
40730;BME280;26418;50.070;8.436;2023-03-16T07:15:06;100379.75;;;1.82;83.32
40730;BME280;26418;50.070;8.436;2023-03-16T07:17:31;100385.53;;;1.79;82.47
40730;BME280;26418;50.070;8.436;2023-03-16T07:19:57;100390.78;;;1.85;83.54
40730;BME280;26418;50.070;8.436;2023-03-16T07:22:22;100387.44;;;1.90;82.99
40730;BME280;26418;50.070;8.436;2023-03-16T07:24:48;100385.22;;;1.87;82.42
40730;BME280;26418;50.070;8.436;2023-03-16T07:27:20;100391.59;;;1.98;83.05
40730;BME280;26418;50.070;8.436;2023-03-16T07:29:47;100387.78;;;2.06;82.29
40730;BME280;26418;50.070;8.436;2023-03-16T07:32:13;100374.78;;;2.09;81.98
40730;BME280;26418;50.070;8.436;2023-03-16T07:34:38;100378.47;;;2.20;81.58
40730;BME280;26418;50.070;8.436;2023-03-16T07:37:03;100372.94;;;2.22;80.76
40730;BME280;26418;50.070;8.436;2023-03-16T07:39:29;100387.53;;;2.31;80.13
40730;BME280;26418;50.070;8.436;2023-03-16T07:41:55;100386.38;;;2.27;80.34
40730;BME280;26418;50.070;8.436;2023-03-16T07:44:21;100383.59;;;2.22;80.71
40730;BME280;26418;50.070;8.436;2023-03-16T07:46:46;100396.94;;;2.22;81.11
40730;BME280;26418;50.070;8.436;2023-03-16T07:49:11;100382.78;;;2.21;81.12
40730;BME280;26418;50.070;8.436;2023-03-16T07:51:37;100382.78;;;2.21;81.31
40730;BME280;26418;50.070;8.436;2023-03-16T07:54:03;100386.25;;;2.33;80.58
40730;BME280;26418;50.070;8.436;2023-03-16T07:56:28;100373.84;;;2.27;80.69
40730;BME280;26418;50.070;8.436;2023-03-16T07:58:53;100386.59;;;2.37;80.81
40730;BME280;26418;50.070;8.436;2023-03-16T08:01:19;100370.44;;;2.44;81.04
40730;BME280;26418;50.070;8.436;2023-03-16T08:03:44;100377.19;;;2.46;80.63
40730;BME280;26418;50.070;8.436;2023-03-16T08:06:09;100380.31;;;2.55;80.61
40730;BME280;26418;50.070;8.436;2023-03-16T08:08:36;100377.72;;;2.60;80.01
40730;BME280;26418;50.070;8.436;2023-03-16T08:11:01;100378.97;;;2.70;80.04
40730;BME280;26418;50.070;8.436;2023-03-16T08:13:26;100379.31;;;2.73;79.51
40730;BME280;26418;50.070;8.436;2023-03-16T08:15:52;100380.16;;;2.74;79.71
40730;BME280;26418;50.070;8.436;2023-03-16T08:18:24;100383.88;;;2.73;79.17
40730;BME280;26418;50.070;8.436;2023-03-16T08:20:49;100381.53;;;2.76;79.66
40730;BME280;26418;50.070;8.436;2023-03-16T08:23:15;100380.25;;;2.79;79.38
40730;BME280;26418;50.070;8.436;2023-03-16T08:25:41;100364.47;;;2.77;79.91
40730;BME280;26418;50.070;8.436;2023-03-16T08:28:07;100364.28;;;2.96;81.08
40730;BME280;26418;50.070;8.436;2023-03-16T08:30:34;100363.41;;;3.07;79.81
40730;BME280;26418;50.070;8.436;2023-03-16T08:33:00;100365.22;;;3.19;79.69
40730;BME280;26418;50.070;8.436;2023-03-16T08:35:27;100357.28;;;3.24;78.33
40730;BME280;26418;50.070;8.436;2023-03-16T08:37:53;100368.16;;;3.34;77.42
40730;BME280;26418;50.070;8.436;2023-03-16T08:40:19;100361.75;;;3.35;77.54
40730;BME280;26418;50.070;8.436;2023-03-16T08:42:47;100353.59;;;3.42;77.43
40730;BME280;26418;50.070;8.436;2023-03-16T08:45:14;100340.81;;;3.44;77.25
40730;BME280;26418;50.070;8.436;2023-03-16T08:47:40;100354.75;;;3.63;76.20
40730;BME280;26418;50.070;8.436;2023-03-16T08:50:07;100347.84;;;3.67;76.25
40730;BME280;26418;50.070;8.436;2023-03-16T08:52:33;100345.34;;;3.77;76.22
40730;BME280;26418;50.070;8.436;2023-03-16T08:54:59;100350.59;;;3.89;75.75
40730;BME280;26418;50.070;8.436;2023-03-16T08:57:24;100341.41;;;4.02;75.05
40730;BME280;26418;50.070;8.436;2023-03-16T08:59:50;100350.69;;;4.17;74.71
40730;BME280;26418;50.070;8.436;2023-03-16T09:02:15;100346.94;;;4.35;74.04
40730;BME280;26418;50.070;8.436;2023-03-16T09:04:41;100343.16;;;4.53;73.86
40730;BME280;26418;50.070;8.436;2023-03-16T09:07:06;100346.91;;;4.79;73.52
40730;BME280;26418;50.070;8.436;2023-03-16T09:09:33;100344.72;;;4.98;71.96
40730;BME280;26418;50.070;8.436;2023-03-16T09:11:59;100345.38;;;5.11;71.03
40730;BME280;26418;50.070;8.436;2023-03-16T09:14:25;100343.06;;;5.19;71.07
40730;BME280;26418;50.070;8.436;2023-03-16T09:16:50;100337.78;;;5.30;69.80
40730;BME280;26418;50.070;8.436;2023-03-16T09:19:16;100320.97;;;5.40;70.10
40730;BME280;26418;50.070;8.436;2023-03-16T09:21:42;100324.09;;;5.64;70.06
40730;BME280;26418;50.070;8.436;2023-03-16T09:24:07;100325.63;;;5.87;68.93
40730;BME280;26418;50.070;8.436;2023-03-16T09:26:35;100325.78;;;6.13;69.11
40730;BME280;26418;50.070;8.436;2023-03-16T09:29:01;100321.09;;;6.41;67.59
40730;BME280;26418;50.070;8.436;2023-03-16T09:31:27;100314.72;;;6.63;65.96
40730;BME280;26418;50.070;8.436;2023-03-16T09:33:53;100312.63;;;6.75;64.29
40730;BME280;26418;50.070;8.436;2023-03-16T09:36:18;100310.72;;;6.81;63.32
40730;BME280;26418;50.070;8.436;2023-03-16T09:38:44;100312.63;;;6.85;62.31
40730;BME280;26418;50.070;8.436;2023-03-16T09:41:32;100309.41;;;6.93;62.88
40730;BME280;26418;50.070;8.436;2023-03-16T09:46:33;100309.97;;;6.96;63.08
40730;BME280;26418;50.070;8.436;2023-03-16T09:49:00;100311.63;;;7.17;63.07
40730;BME280;26418;50.070;8.436;2023-03-16T09:54:01;100309.47;;;7.45;61.29
40730;BME280;26418;50.070;8.436;2023-03-16T09:56:34;100304.63;;;7.47;60.65
40730;BME280;26418;50.070;8.436;2023-03-16T09:59:08;100305.41;;;7.58;60.40
40730;BME280;26418;50.070;8.436;2023-03-16T10:07:03;100305.06;;;8.06;59.63
40730;BME280;26418;50.070;8.436;2023-03-16T10:09:52;100309.06;;;8.19;58.55
40730;BME280;26418;50.070;8.436;2023-03-16T10:12:20;100299.59;;;8.32;58.76
40730;BME280;26418;50.070;8.436;2023-03-16T10:15:08;100299.56;;;8.47;57.74
40730;BME280;26418;50.070;8.436;2023-03-16T10:17:42;100297.63;;;8.58;57.91
40730;BME280;26418;50.070;8.436;2023-03-16T10:20:19;100290.47;;;8.83;57.89
40730;BME280;26418;50.070;8.436;2023-03-16T10:22:46;100294.84;;;9.19;56.64
40730;BME280;26418;50.070;8.436;2023-03-16T10:27:53;100299.22;;;9.73;54.76
40730;BME280;26418;50.070;8.436;2023-03-16T10:30:26;100302.22;;;9.96;54.23
40730;BME280;26418;50.070;8.436;2023-03-16T10:32:55;100293.22;;;10.06;52.80
40730;BME280;26418;50.070;8.436;2023-03-16T10:38:28;100288.78;;;10.40;51.67
40730;BME280;26418;50.070;8.436;2023-03-16T10:40:55;100282.50;;;10.44;51.83
40730;BME280;26418;50.070;8.436;2023-03-16T10:43:22;100276.63;;;10.61;51.94
40730;BME280;26418;50.070;8.436;2023-03-16T10:45:48;100279.75;;;10.88;50.59
40730;BME280;26418;50.070;8.436;2023-03-16T10:48:19;100272.16;;;10.90;49.68
40730;BME280;26418;50.070;8.436;2023-03-16T10:50:53;100272.06;;;10.95;50.68
40730;BME280;26418;50.070;8.436;2023-03-16T10:55:47;100267.50;;;11.09;50.39
40730;BME280;26418;50.070;8.436;2023-03-16T10:58:23;100271.88;;;11.24;50.04
40730;BME280;26418;50.070;8.436;2023-03-16T11:00:49;100265.91;;;11.55;50.11
40730;BME280;26418;50.070;8.436;2023-03-16T11:03:39;100259.44;;;11.70;48.53
40730;BME280;26418;50.070;8.436;2023-03-16T11:06:14;100254.63;;;11.81;48.27
40730;BME280;26418;50.070;8.436;2023-03-16T11:08:42;100256.81;;;11.93;47.31
40730;BME280;26418;50.070;8.436;2023-03-16T11:11:12;100260.59;;;11.97;47.15
40730;BME280;26418;50.070;8.436;2023-03-16T11:13:44;100260.78;;;12.15;47.98
40730;BME280;26418;50.070;8.436;2023-03-16T11:18:59;100235.34;;;12.75;46.44
40730;BME280;26418;50.070;8.436;2023-03-16T11:24:01;100249.84;;;12.93;45.00
40730;BME280;26418;50.070;8.436;2023-03-16T11:26:39;100245.88;;;13.22;45.17
40730;BME280;26418;50.070;8.436;2023-03-16T11:29:10;100235.81;;;13.23;44.66
40730;BME280;26418;50.070;8.436;2023-03-16T11:31:46;100231.34;;;13.41;44.89
40730;BME280;26418;50.070;8.436;2023-03-16T11:34:20;100226.47;;;13.37;44.10
40730;BME280;26418;50.070;8.436;2023-03-16T11:36:56;100230.28;;;13.28;44.60
40730;BME280;26418;50.070;8.436;2023-03-16T11:45:00;100221.75;;;12.75;44.77
40730;BME280;26418;50.070;8.436;2023-03-16T11:50:19;100211.50;;;12.72;45.38
40730;BME280;26418;50.070;8.436;2023-03-16T12:09:08;100178.16;;;12.49;46.72
40730;BME280;26418;50.070;8.436;2023-03-16T12:16:45;100176.50;;;12.25;46.99
40730;BME280;26418;50.070;8.436;2023-03-16T12:19:24;100169.28;;;12.20;46.83
40730;BME280;26418;50.070;8.436;2023-03-16T12:22:01;100178.34;;;12.16;47.07
40730;BME280;26418;50.070;8.436;2023-03-16T12:24:36;100175.19;;;12.22;47.05
40730;BME280;26418;50.070;8.436;2023-03-16T12:27:04;100180.34;;;12.24;46.67
40730;BME280;26418;50.070;8.436;2023-03-16T12:32:16;100157.78;;;12.37;46.28
40730;BME280;26418;50.070;8.436;2023-03-16T12:34:56;100144.22;;;12.60;46.16
40730;BME280;26418;50.070;8.436;2023-03-16T12:40:21;100144.88;;;13.11;42.52
40730;BME280;26418;50.070;8.436;2023-03-16T12:50:53;100130.00;;;13.40;42.52
40730;BME280;26418;50.070;8.436;2023-03-16T12:53:46;100111.03;;;13.58;41.83
40730;BME280;26418;50.070;8.436;2023-03-16T12:56:29;100118.06;;;13.59;42.25
40730;BME280;26418;50.070;8.436;2023-03-16T12:58:57;100101.28;;;13.48;41.99
40730;BME280;26418;50.070;8.436;2023-03-16T13:01:36;100105.25;;;13.50;42.11
40730;BME280;26418;50.070;8.436;2023-03-16T13:04:16;100109.00;;;13.81;43.67
40730;BME280;26418;50.070;8.436;2023-03-16T13:06:49;100098.94;;;14.34;42.38
40730;BME280;26418;50.070;8.436;2023-03-16T13:09:18;100100.69;;;14.74;41.56
40730;BME280;26418;50.070;8.436;2023-03-16T13:11:47;100085.34;;;14.69;39.89
40730;BME280;26418;50.070;8.436;2023-03-16T13:14:55;100092.88;;;14.72;40.04
40730;BME280;26418;50.070;8.436;2023-03-16T13:17:29;100084.38;;;14.56;40.99
40730;BME280;26418;50.070;8.436;2023-03-16T13:22:47;100069.09;;;14.90;41.20
40730;BME280;26418;50.070;8.436;2023-03-16T13:25:22;100074.81;;;15.06;41.89
40730;BME280;26418;50.070;8.436;2023-03-16T13:27:52;100069.38;;;15.06;41.16
40730;BME280;26418;50.070;8.436;2023-03-16T13:32:58;100071.19;;;14.93;42.48
40730;BME280;26418;50.070;8.436;2023-03-16T13:35:26;100073.97;;;14.67;44.42
40730;BME280;26418;50.070;8.436;2023-03-16T13:37:52;100064.19;;;14.75;49.20
40730;BME280;26418;50.070;8.436;2023-03-16T13:40:25;100070.06;;;14.86;49.97
40730;BME280;26418;50.070;8.436;2023-03-16T13:42:52;100061.41;;;14.92;44.27
40730;BME280;26418;50.070;8.436;2023-03-16T13:45:22;100061.13;;;14.85;44.42
40730;BME280;26418;50.070;8.436;2023-03-16T13:47:49;100064.28;;;14.87;43.27
40730;BME280;26418;50.070;8.436;2023-03-16T13:50:15;100063.97;;;14.89;44.10
40730;BME280;26418;50.070;8.436;2023-03-16T13:52:42;100065.94;;;14.80;44.09
40730;BME280;26418;50.070;8.436;2023-03-16T13:55:20;100054.47;;;14.48;43.53
40730;BME280;26418;50.070;8.436;2023-03-16T13:57:47;100058.00;;;14.30;44.30
40730;BME280;26418;50.070;8.436;2023-03-16T14:00:20;100051.75;;;14.21;44.47
40730;BME280;26418;50.070;8.436;2023-03-16T14:02:52;100042.19;;;13.89;44.91
40730;BME280;26418;50.070;8.436;2023-03-16T14:05:28;100039.63;;;13.75;45.84
40730;BME280;26418;50.070;8.436;2023-03-16T14:07:55;100043.78;;;13.72;45.68
40730;BME280;26418;50.070;8.436;2023-03-16T14:10:22;100040.50;;;13.44;45.55
40730;BME280;26418;50.070;8.436;2023-03-16T14:12:50;100028.00;;;13.34;46.49
40730;BME280;26418;50.070;8.436;2023-03-16T14:15:15;100036.84;;;13.48;47.35
40730;BME280;26418;50.070;8.436;2023-03-16T14:17:42;100025.69;;;13.59;47.22
40730;BME280;26418;50.070;8.436;2023-03-16T14:23:25;100031.44;;;13.66;47.69